Impacts METAR Board
IDs:

KPDX - Portland Intl Arpt, OR, US

Updated at: 0800 UTC 22 Jul 2018
Potential Impact None Slight Moderate High
Time 21/20Z 21/21Z 21/22Z 21/23Z 22/00Z 22/01Z 22/02Z 22/03Z 22/04Z 22/05Z 22/06Z 22/07Z 22/08Z
Temp73 76 77 79 80 80 79 77 72 70 68 66 65
Dewpt52 50 48 48 42 47 50 51 53 53 53 53 53
Altim30.15 30.13 30.13 30.12 30.11 30.10 30.09 30.10 30.12 30.13 30.15 30.14 30.15
VIS10 10 10 10 10 10 10 10 10 10 10 10 10
CIG-- -- -- -- -- -- -- -- -- -- -- -- --
CoverFEWFEWFEWFEWFEWCLRCLRCLRCLRFEWCLRCLRCLR
FltCatVFRVFRVFRVFRVFRVFRVFRVFRVFRVFRVFRVFRVFR
WX--------------------------
WDir300300310290310310300330350350330320310
WSpd9 10 10 10 8 8 9 6 5 7 6 6 6
WGst-- -- -- -- -- -- -- -- -- 17 14 -- --
Raw hourly METARs
KPDX 211953Z 30009KT 10SM FEW030 23/11 A3015 RMK AO2 SLP208 T02280111
KPDX 212053Z 30010KT 10SM FEW050 24/10 A3013 RMK AO2 SLP203 T02440100 58010
KPDX 212153Z 31010KT 10SM FEW050 25/09 A3013 RMK AO2 SLP200 T02500089
KPDX 212253Z 29010KT 10SM FEW250 26/09 A3012 RMK AO2 SLP198 T02610089
KPDX 212353Z 31008KT 10SM FEW250 27/06 A3011 RMK AO2 SLP194 T02670056 10267 20189 58009
KPDX 220053Z 31008KT 10SM CLR 27/08 A3010 RMK AO2 SLP191 T02670083
KPDX 220153Z 30009KT 10SM CLR 26/10 A3009 RMK AO2 SLP189 T02610100
KPDX 220253Z 33006KT 10SM CLR 25/11 A3010 RMK AO2 SLP192 T02500106 55003
KPDX 220353Z 35005KT 10SM CLR 22/12 A3012 RMK AO2 SLP198 T02220117
KPDX 220453Z 35007G17KT 10SM FEW065 21/12 A3013 RMK AO2 SLP203 T02110117
KPDX 220553Z 33006G14KT 10SM CLR 20/12 A3015 RMK AO2 SLP208 T02000117 10272 20200 51015
KPDX 220653Z 32006KT 10SM CLR 19/12 A3014 RMK AO2 SLP207 T01890117
KPDX 220753Z 31006KT 10SM CLR 18/12 A3015 RMK AO2 SLP207 T01830117 402720133



Page loaded:  08:49 UTC  |   01:49 AM Pacific  |   02:49 AM Mountain  |   03:49 AM Central  |   04:49 AM Eastern

 

ADVISORIES

FORECASTS

FORECASTS

OBSERVATIONS

USER TOOLS

ABOUT US